Share

Arvika, Sweden

IVRMLAND3 Elev 453 ft | 59.73 °N, 13.06 °E | Change Station

Current weather conditions updated 5 minutes ago

Clear
Clear
39.9 °F
Feels Like 40 °F
N
1.6
Wind Variable Wind from South
Gusts 2.2 mph
Sunrise 5:37 AM
Sunset 8:40 PM
Moon Waning Gibbous

Today is forecast to be nearly the same temperature as yesterday.

Pressure 30.18 in
Visibility 6.2 miles
Clouds
Windchill 40 °F
Dew Point 40 °F
Humidity 99%
Rainfall 0.00 in
Snow Depth Not available.
UV Not available.
Pollen Not available.
Air Quality Not available.
Flu Activity Not available.
METAR ESOK 202350Z AUTO 05005KT 9999 NCD 06/02 Q1022

More Conditions Fewer Conditions

Pressure 30.18 in
Visibility 6.2 miles
Clouds
Windchill 40 °F
Dew Point 40 °F
Humidity 99%
Rainfall 0.00 in
Snow Depth Not available.
UV Not available.
Pollen Not available.
Air Quality Not available.
Flu Activity Not available.
METAR ESOK 202350Z AUTO 05005KT 9999 NCD 06/02 Q1022

More Conditions Fewer Conditions

10-Day Weather Forecast

Almanac

Astronomy

Apr. 21, 2014 Rise Set
Actual Time 5:37 AM CEST 8:40 PM CEST
Civil Twilight 4:49 AM CEST 9:28 PM CEST
Nautical Twilight 3:44 AM CEST 10:35 PM CEST
Astronomical Twilight 1:53 AM CEST 12:38 AM CEST
Moon 2:22 AM CEST 10:20 AM CEST
Length of Visible Light 16h 39m
Length of Day
15h 03m
Tomorrow will be 5m 16s longer.
Waning Gibbous, 65% of the Moon is Illuminated
Apr 20
Waning Gibbous
Apr 22
Last Quarter
Apr 29
New
May 6
First Quarter
May 14
Full

Yesterday's Extremes

Country Highs Country Lows

Community

  • Easter Dance
    Easter Dance
  • spring skiing mount Baker WA
    spring skiing mount Baker WA
  • Morning Sun
    Morning Sun
  • Happy Easter
    Happy Easter
  • after rain
    after rain

WunderPhotos

Upload Photos

1,703,440 photos uploaded!

WunderBlogs® & News

Nearby

Snow Depth

Not available.

Coastal Water Temperatures

Place Temperature
No Stations Reporting

Earthquake Activity

City Distance Mag. Time & Date
No recent earthquake activity has been reported nearby.
Minimum magnitude displayed is 2.5.

Nearby Weather Stations

Station Location Temp. Windchill Dew Point Humidity Wind Precip. Elev Updated Type
Vastra Amtervik 39.9 °F 40 °F 40 °F 99% South  at  1.6 mph 0.00 in / hr 453 ft 1:59 AM CEST Normal

Show More Stations Show Fewer Stations

What do you think?

We're not finished. Please let us know what you like, what you don't like, and what you are still missing.